createdAt,value
2022-11-29T00:00:20.896Z,77.55
2022-11-29T00:01:42.171Z,77.57
2022-11-29T00:03:03.301Z,77.92
2022-11-29T00:04:24.700Z,78.09
2022-11-29T00:05:45.769Z,77.39
2022-11-29T00:07:07.090Z,78.32
2022-11-29T00:08:28.232Z,77.66
2022-11-29T00:09:49.451Z,78.67
2022-11-29T00:11:39.608Z,78.22
2022-11-29T00:13:00.822Z,78.21
2022-11-29T00:14:23.391Z,78.03
2022-11-29T00:15:44.509Z,78.28
2022-11-29T00:17:06.217Z,78.26
2022-11-29T00:18:28.125Z,78.70
2022-11-29T00:19:49.376Z,78.62
2022-11-29T00:21:10.561Z,78.46
2022-11-29T00:22:31.258Z,78.49
2022-11-29T00:23:52.477Z,78.92
2022-11-29T00:25:13.534Z,79.44
2022-11-29T00:26:34.907Z,78.63
2022-11-29T00:27:56.002Z,79.26
2022-11-29T00:29:17.510Z,78.35
2022-11-29T00:30:38.731Z,78.51
2022-11-29T00:32:00.257Z,78.91
2022-11-29T00:33:21.081Z,79.27
2022-11-29T00:34:42.493Z,78.46
2022-11-29T00:36:03.831Z,78.97
2022-11-29T00:37:25.162Z,78.98
2022-11-29T00:38:46.607Z,77.96
2022-11-29T00:40:08.371Z,78.58
2022-11-29T00:41:29.172Z,78.78
2022-11-29T00:42:50.325Z,78.63
2022-11-29T00:44:16.807Z,78.38
2022-11-29T00:45:40.658Z,78.32
2022-11-29T00:47:01.969Z,78.79
2022-11-29T00:48:23.531Z,78.52
2022-11-29T00:49:44.639Z,77.58
2022-11-29T00:51:06.547Z,78.27
2022-11-29T00:52:27.255Z,78.62
2022-11-29T00:53:48.263Z,78.42
2022-11-29T00:55:09.612Z,78.56
2022-11-29T00:56:30.707Z,78.81
2022-11-29T00:57:51.832Z,79.14
2022-11-29T00:59:12.960Z,78.72
2022-11-29T01:00:34.082Z,79.14
2022-11-29T01:01:55.157Z,78.36
2022-11-29T01:03:17.085Z,78.67
2022-11-29T01:04:37.927Z,79.47
2022-11-29T01:06:08.437Z,77.93
2022-11-29T01:07:29.410Z,78.46
2022-11-29T01:08:50.789Z,78.44
2022-11-29T01:10:11.785Z,78.79
2022-11-29T01:11:33.477Z,78.45
2022-11-29T01:12:55.366Z,78.63
2022-11-29T01:14:16.403Z,78.96
2022-11-29T01:15:37.643Z,77.99
2022-11-29T01:16:58.739Z,78.51
2022-11-29T01:18:20.000Z,78.07
2022-11-29T01:19:44.114Z,78.42
2022-11-29T01:21:10.514Z,78.98
2022-11-29T01:22:31.348Z,78.53
2022-11-29T01:23:54.225Z,77.94
2022-11-29T01:25:15.525Z,78.73
2022-11-29T01:26:36.359Z,78.12
2022-11-29T01:27:57.499Z,77.98
2022-11-29T01:29:18.967Z,78.14
2022-11-29T01:30:40.132Z,78.10
2022-11-29T01:32:01.229Z,78.21
2022-11-29T01:33:22.720Z,77.01
2022-11-29T01:34:44.175Z,76.90
2022-11-29T01:36:07.288Z,78.43
2022-11-29T01:37:31.484Z,77.58
2022-11-29T01:38:53.105Z,78.44
2022-11-29T01:40:14.440Z,77.53
2022-11-29T01:41:37.265Z,77.47
2022-11-29T01:42:58.389Z,77.51
2022-11-29T01:44:19.456Z,78.35
2022-11-29T01:45:40.963Z,78.13
2022-11-29T01:47:01.879Z,78.80
2022-11-29T01:48:27.718Z,80.23
2022-11-29T01:49:50.110Z,80.88
2022-11-29T01:51:11.606Z,80.66
2022-11-29T01:52:33.177Z,81.12
2022-11-29T01:53:57.375Z,82.07
2022-11-29T01:55:19.110Z,81.89
2022-11-29T01:56:42.905Z,81.53
2022-11-29T01:58:06.397Z,81.87
2022-11-29T01:59:29.694Z,81.42
2022-11-29T02:00:50.810Z,81.68
2022-11-29T02:02:22.305Z,82.92
2022-11-29T02:03:43.110Z,81.83
2022-11-29T02:05:05.445Z,82.23
2022-11-29T02:06:28.413Z,82.73
2022-11-29T02:07:52.552Z,81.79
2022-11-29T02:09:22.762Z,82.29
2022-11-29T02:11:07.707Z,82.50
2022-11-29T02:12:53.505Z,82.07
2022-11-29T02:14:26.703Z,83.08
2022-11-29T02:16:03.826Z,82.66
2022-11-29T02:17:36.739Z,82.72
2022-11-29T02:19:18.147Z,82.28
2022-11-29T02:20:47.657Z,82.80
2022-11-29T02:22:31.978Z,82.10
2022-11-29T02:24:36.102Z,82.32
2022-11-29T02:26:15.628Z,81.86
2022-11-29T02:27:45.719Z,81.24
2022-11-29T02:29:23.211Z,81.30
2022-11-29T02:30:50.339Z,80.78
2022-11-29T02:32:59.590Z,80.36
2022-11-29T02:34:53.640Z,80.14
2022-11-29T02:36:23.507Z,80.57
2022-11-29T02:37:44.398Z,80.79
2022-11-29T02:39:05.086Z,79.83
2022-11-29T02:40:50.801Z,79.79
2022-11-29T02:42:54.392Z,79.90
2022-11-29T02:44:45.717Z,79.45
2022-11-29T02:46:30.040Z,79.77
2022-11-29T02:48:02.773Z,80.07
2022-11-29T02:49:38.721Z,79.91
2022-11-29T02:51:23.509Z,80.49
2022-11-29T02:52:54.975Z,79.80
2022-11-29T02:54:50.301Z,80.77
2022-11-29T02:56:37.485Z,81.36
2022-11-29T02:58:09.680Z,81.53
2022-11-29T02:59:48.710Z,81.56
2022-11-29T03:01:16.649Z,81.83
2022-11-29T03:02:57.047Z,82.16
2022-11-29T03:04:45.740Z,81.45
2022-11-29T03:06:21.914Z,82.06
2022-11-29T03:08:01.047Z,81.53
2022-11-29T03:09:40.587Z,81.42
2022-11-29T03:11:38.149Z,81.12
2022-11-29T03:13:00.315Z,81.67
2022-11-29T03:14:39.917Z,81.04
2022-11-29T03:16:17.321Z,80.11
2022-11-29T03:18:06.637Z,80.88
2022-11-29T03:19:55.296Z,80.62
2022-11-29T03:21:45.944Z,80.72
2022-11-29T03:23:28.330Z,80.93
2022-11-29T03:25:17.038Z,80.38
2022-11-29T03:27:01.062Z,80.86
2022-11-29T03:28:24.735Z,80.73
2022-11-29T03:29:58.101Z,80.11
2022-11-29T03:31:30.037Z,80.36
2022-11-29T03:33:05.081Z,80.25
2022-11-29T03:34:55.694Z,80.22
2022-11-29T03:36:36.686Z,80.02
2022-11-29T03:38:35.308Z,80.29
2022-11-29T03:40:07.140Z,79.67
2022-11-29T03:41:40.921Z,79.72
2022-11-29T03:43:01.807Z,80.21
2022-11-29T03:44:28.069Z,80.00
2022-11-29T03:46:04.627Z,79.52
2022-11-29T03:47:36.101Z,79.63
2022-11-29T03:49:03.616Z,79.55
2022-11-29T03:50:57.552Z,79.79
2022-11-29T03:52:47.767Z,80.11
2022-11-29T03:54:13.135Z,79.61
2022-11-29T03:55:50.501Z,79.61
2022-11-29T03:57:17.732Z,80.68
2022-11-29T03:58:56.934Z,81.24
2022-11-29T04:00:18.942Z,80.78
2022-11-29T04:02:10.768Z,81.04
2022-11-29T04:03:53.313Z,81.63
2022-11-29T04:05:29.732Z,80.98
2022-11-29T04:07:12.237Z,81.34
2022-11-29T04:09:04.315Z,81.11
2022-11-29T04:10:39.609Z,81.97
2022-11-29T04:12:48.922Z,81.88
2022-11-29T04:14:26.264Z,81.35
2022-11-29T04:16:07.549Z,81.87
2022-11-29T04:17:45.163Z,81.41
2022-11-29T04:19:22.207Z,82.38
2022-11-29T04:21:01.755Z,81.94
2022-11-29T04:22:54.986Z,81.80
2022-11-29T04:24:19.198Z,81.93
2022-11-29T04:26:01.138Z,81.59
2022-11-29T04:27:48.698Z,81.54
2022-11-29T04:29:25.202Z,82.48
2022-11-29T04:31:24.140Z,81.60
2022-11-29T04:33:18.694Z,81.78
2022-11-29T04:35:17.088Z,83.06
2022-11-29T04:37:14.123Z,82.48
2022-11-29T04:38:48.809Z,83.09
2022-11-29T04:40:18.465Z,82.73
2022-11-29T04:42:24.785Z,82.76
2022-11-29T04:44:07.626Z,82.48
2022-11-29T04:46:02.452Z,82.74
2022-11-29T04:47:33.801Z,82.49
2022-11-29T04:49:35.301Z,82.88
2022-11-29T04:51:02.197Z,83.28
2022-11-29T04:52:55.509Z,84.53
2022-11-29T04:54:19.271Z,84.50
2022-11-29T04:55:53.753Z,84.01
2022-11-29T04:57:32.806Z,84.03
2022-11-29T04:59:03.611Z,84.46
2022-11-29T05:00:25.550Z,84.65
2022-11-29T05:02:11.309Z,83.27
2022-11-29T05:03:42.259Z,83.73
2022-11-29T05:05:24.530Z,84.10
2022-11-29T05:07:03.471Z,84.07
2022-11-29T05:08:38.590Z,84.13
2022-11-29T05:10:14.884Z,83.86
2022-11-29T05:11:58.746Z,83.55
2022-11-29T05:13:44.484Z,84.42
2022-11-29T05:15:14.877Z,84.43
2022-11-29T05:16:35.991Z,83.95
2022-11-29T05:18:17.314Z,84.21
2022-11-29T05:19:53.672Z,83.40
2022-11-29T05:21:24.996Z,83.41
2022-11-29T05:23:04.675Z,83.48
2022-11-29T05:24:58.959Z,82.80
2022-11-29T05:26:29.520Z,83.07
2022-11-29T05:28:25.929Z,83.98
2022-11-29T05:30:02.011Z,83.56
2022-11-29T05:31:50.362Z,83.55
2022-11-29T05:33:24.748Z,82.79
2022-11-29T05:34:57.935Z,83.20
2022-11-29T05:36:40.086Z,83.08
2022-11-29T05:38:19.604Z,82.05
2022-11-29T05:39:51.426Z,83.00
2022-11-29T05:41:18.263Z,82.38
2022-11-29T05:43:07.279Z,82.18
2022-11-29T05:44:37.989Z,82.57
2022-11-29T05:46:12.821Z,81.55
2022-11-29T05:47:46.908Z,81.56
2022-11-29T05:49:27.556Z,80.99
2022-11-29T05:50:58.377Z,81.62
2022-11-29T05:52:55.559Z,80.52
2022-11-29T05:54:33.843Z,80.65
2022-11-29T05:56:03.990Z,80.53
2022-11-29T05:57:40.320Z,80.95
2022-11-29T05:59:17.202Z,79.59
2022-11-29T06:00:49.814Z,80.80
2022-11-29T06:02:26.158Z,79.95
2022-11-29T06:04:15.146Z,80.18
2022-11-29T06:05:57.076Z,79.30
2022-11-29T06:07:26.128Z,79.97
2022-11-29T06:08:56.966Z,79.71
2022-11-29T06:10:20.006Z,79.74
2022-11-29T06:11:55.007Z,79.29
2022-11-29T06:13:31.538Z,79.79
2022-11-29T06:14:57.097Z,79.21
2022-11-29T06:16:57.203Z,79.82
2022-11-29T06:18:27.433Z,79.25
2022-11-29T06:20:27.651Z,79.27
2022-11-29T06:22:05.797Z,79.07
2022-11-29T06:23:36.648Z,78.27
2022-11-29T06:25:23.633Z,78.04
2022-11-29T06:26:44.985Z,78.45
2022-11-29T06:28:32.631Z,77.97
2022-11-29T06:30:15.026Z,78.21
2022-11-29T06:31:43.488Z,77.41
2022-11-29T06:33:28.949Z,77.46
2022-11-29T06:35:09.562Z,77.79
2022-11-29T06:37:08.217Z,77.11
2022-11-29T06:38:33.184Z,77.44
2022-11-29T06:39:57.591Z,77.74
2022-11-29T06:41:21.550Z,77.31
2022-11-29T06:42:43.182Z,77.22
2022-11-29T06:44:05.591Z,77.25
2022-11-29T06:45:27.073Z,76.94
2022-11-29T06:47:24.149Z,76.76
2022-11-29T06:48:56.568Z,77.33
2022-11-29T06:50:32.860Z,77.67
2022-11-29T06:52:18.476Z,78.17
2022-11-29T06:53:54.332Z,77.70
2022-11-29T06:55:22.643Z,77.35
2022-11-29T06:56:55.772Z,77.61
2022-11-29T06:58:34.466Z,77.75
2022-11-29T07:00:12.910Z,78.04
2022-11-29T07:01:59.722Z,77.13
2022-11-29T07:03:59.137Z,77.14
2022-11-29T07:05:30.550Z,77.14
2022-11-29T07:06:51.710Z,76.67
2022-11-29T07:08:17.332Z,76.65
2022-11-29T07:09:38.497Z,75.64
2022-11-29T07:11:00.601Z,75.86
2022-11-29T07:12:21.800Z,76.15
2022-11-29T07:13:42.778Z,75.08
2022-11-29T07:15:05.510Z,74.97
2022-11-29T07:16:34.024Z,74.11
2022-11-29T07:18:13.442Z,74.43
2022-11-29T07:19:50.905Z,74.33
2022-11-29T07:21:36.734Z,74.55
2022-11-29T07:23:10.977Z,74.28
2022-11-29T07:24:49.846Z,74.28
2022-11-29T07:26:38.487Z,74.13
2022-11-29T07:28:17.375Z,74.57
2022-11-29T07:30:14.173Z,74.58
2022-11-29T07:32:03.543Z,74.77
2022-11-29T07:33:54.792Z,74.39
2022-11-29T07:35:23.087Z,75.21
2022-11-29T07:37:00.538Z,74.73
2022-11-29T07:38:58.311Z,74.76
2022-11-29T07:40:49.825Z,74.92
2022-11-29T07:42:30.426Z,74.96
2022-11-29T07:44:30.727Z,74.87
2022-11-29T07:45:51.810Z,74.53
2022-11-29T07:47:15.597Z,73.86
2022-11-29T07:48:36.761Z,73.07
2022-11-29T07:49:57.857Z,72.84
2022-11-29T07:51:19.267Z,73.31
2022-11-29T07:52:40.477Z,73.46
2022-11-29T07:54:01.718Z,73.15
2022-11-29T07:55:26.030Z,73.48
2022-11-29T07:56:47.510Z,73.60
2022-11-29T07:58:12.830Z,73.62
2022-11-29T07:59:34.035Z,74.26
2022-11-29T08:00:54.931Z,74.36
2022-11-29T08:02:26.822Z,74.89
2022-11-29T08:03:48.193Z,75.47
2022-11-29T08:05:09.881Z,74.84
2022-11-29T08:06:31.121Z,75.95
2022-11-29T08:07:53.647Z,75.92
2022-11-29T08:09:14.849Z,75.82
2022-11-29T08:10:36.101Z,76.17
2022-11-29T08:11:57.169Z,77.10
2022-11-29T08:13:20.824Z,77.12
2022-11-29T08:14:41.916Z,77.29
2022-11-29T08:16:03.517Z,77.42
2022-11-29T08:17:25.882Z,78.08
2022-11-29T08:18:46.828Z,78.00
2022-11-29T08:20:09.726Z,78.00
2022-11-29T08:21:30.774Z,77.28
2022-11-29T08:22:57.107Z,77.11
2022-11-29T08:24:18.159Z,76.61
2022-11-29T08:25:39.837Z,76.81
2022-11-29T08:27:00.975Z,76.41
2022-11-29T08:28:22.096Z,76.62
2022-11-29T08:29:43.392Z,76.88
2022-11-29T08:31:06.930Z,76.36
2022-11-29T08:32:28.457Z,76.41
2022-11-29T08:33:49.472Z,76.43
2022-11-29T08:35:10.612Z,75.84
2022-11-29T08:36:31.880Z,75.52
2022-11-29T08:37:54.125Z,76.12
2022-11-29T08:39:15.219Z,75.79
2022-11-29T08:40:36.521Z,75.72
2022-11-29T08:41:57.448Z,75.74
2022-11-29T08:43:18.676Z,75.46
2022-11-29T08:44:39.950Z,74.97
2022-11-29T08:46:01.429Z,75.02
2022-11-29T08:47:37.568Z,74.53
2022-11-29T08:48:58.690Z,74.38
2022-11-29T08:50:19.752Z,74.04
2022-11-29T08:51:40.723Z,73.72
2022-11-29T08:53:20.322Z,73.34
2022-11-29T08:54:41.409Z,73.21
2022-11-29T08:56:17.062Z,71.98
2022-11-29T08:57:43.914Z,72.13
2022-11-29T08:59:05.781Z,72.37
2022-11-29T09:00:26.820Z,73.10
2022-11-29T09:01:48.088Z,72.66
2022-11-29T09:03:27.957Z,71.93
2022-11-29T09:04:48.873Z,72.25
2022-11-29T09:06:13.000Z,71.72
2022-11-29T09:07:34.395Z,70.84
2022-11-29T09:08:56.534Z,68.56
2022-11-29T09:10:17.528Z,68.68
2022-11-29T09:11:38.980Z,68.78
2022-11-29T09:13:00.249Z,68.77
2022-11-29T09:14:22.869Z,69.65
2022-11-29T09:15:43.974Z,69.98
2022-11-29T09:17:05.060Z,69.84
2022-11-29T09:19:50.225Z,70.33
2022-11-29T09:21:13.597Z,70.47
2022-11-29T09:22:34.377Z,70.08
2022-11-29T09:23:59.324Z,70.26
2022-11-29T09:25:20.463Z,69.66
2022-11-29T09:26:42.290Z,69.88
2022-11-29T09:28:03.580Z,69.59
2022-11-29T09:29:24.545Z,69.44
2022-11-29T09:30:45.847Z,69.29
2022-11-29T09:32:07.134Z,69.82
2022-11-29T09:33:28.379Z,69.38
2022-11-29T09:34:49.177Z,69.66
2022-11-29T09:36:11.647Z,69.90
2022-11-29T09:37:33.269Z,69.50
2022-11-29T09:38:54.516Z,68.51
2022-11-29T09:40:19.772Z,67.44
2022-11-29T09:42:01.145Z,67.74
2022-11-29T09:43:36.930Z,67.54
2022-11-29T09:45:09.584Z,66.82
2022-11-29T09:46:33.533Z,66.92
2022-11-29T09:48:03.642Z,66.89
2022-11-29T09:49:46.262Z,69.64
2022-11-29T09:51:28.139Z,69.77
2022-11-29T09:53:18.714Z,69.17
2022-11-29T09:54:51.884Z,69.27
2022-11-29T09:56:23.972Z,68.97
2022-11-29T09:57:46.116Z,69.12
2022-11-29T09:59:17.214Z,69.18
2022-11-29T10:00:47.338Z,69.51
2022-11-29T10:02:21.810Z,69.22
2022-11-29T10:03:48.762Z,69.18
2022-11-29T10:05:25.197Z,68.87
2022-11-29T10:07:06.713Z,67.63
2022-11-29T10:08:42.059Z,67.37
2022-11-29T10:10:11.269Z,66.99
2022-11-29T10:12:04.258Z,66.67
2022-11-29T10:13:26.617Z,65.24
2022-11-29T10:14:58.419Z,65.61
2022-11-29T10:17:04.440Z,64.80
2022-11-29T10:18:27.059Z,64.90
2022-11-29T10:19:53.086Z,65.08
2022-11-29T10:21:21.088Z,65.20
2022-11-29T10:23:09.471Z,64.56
2022-11-29T10:24:33.058Z,64.93
2022-11-29T10:25:56.633Z,64.26
2022-11-29T10:27:23.961Z,64.76
2022-11-29T10:28:47.737Z,64.74
2022-11-29T10:30:14.602Z,63.62
2022-11-29T10:31:39.271Z,63.49
2022-11-29T10:33:00.989Z,63.90
2022-11-29T10:34:25.533Z,64.05
2022-11-29T10:35:48.528Z,62.40
2022-11-29T10:37:32.765Z,61.42
2022-11-29T10:38:59.685Z,61.35
2022-11-29T10:40:32.306Z,62.87
2022-11-29T10:42:01.461Z,63.04
2022-11-29T10:43:23.992Z,62.93
2022-11-29T10:44:45.132Z,63.02
2022-11-29T10:46:15.572Z,63.64
2022-11-29T10:47:36.947Z,64.10
2022-11-29T10:49:04.925Z,63.79
2022-11-29T10:50:28.598Z,63.50
2022-11-29T10:51:49.709Z,64.45
2022-11-29T10:53:14.943Z,64.68
2022-11-29T10:54:42.549Z,64.08
2022-11-29T10:56:29.354Z,63.92
2022-11-29T10:58:10.569Z,64.93
2022-11-29T10:59:33.201Z,65.37
2022-11-29T11:01:15.525Z,65.83
2022-11-29T11:02:37.555Z,65.91
2022-11-29T11:04:00.613Z,65.47
2022-11-29T11:05:26.602Z,65.68
2022-11-29T11:06:56.955Z,65.96
2022-11-29T11:08:18.324Z,66.36
2022-11-29T11:09:48.717Z,66.56
2022-11-29T11:11:12.304Z,66.28
2022-11-29T11:12:34.719Z,66.37
2022-11-29T11:14:00.298Z,66.81
2022-11-29T11:15:24.109Z,66.74
2022-11-29T11:16:45.341Z,66.94
2022-11-29T11:18:21.210Z,66.82
2022-11-29T11:19:42.515Z,67.18
2022-11-29T11:21:04.762Z,67.27
2022-11-29T11:22:27.102Z,67.12
2022-11-29T11:23:54.640Z,68.02
2022-11-29T11:25:35.232Z,68.23
2022-11-29T11:26:57.135Z,68.80
2022-11-29T11:28:22.328Z,68.05
2022-11-29T11:29:44.613Z,68.89
2022-11-29T11:31:08.795Z,68.48
2022-11-29T11:32:30.142Z,68.91
2022-11-29T11:33:51.429Z,68.53
2022-11-29T11:35:24.380Z,68.02
2022-11-29T11:36:45.501Z,68.35
2022-11-29T11:38:16.076Z,68.54
2022-11-29T11:39:37.631Z,69.21
2022-11-29T11:41:18.259Z,69.12
2022-11-29T11:42:40.623Z,69.75
2022-11-29T11:44:04.517Z,69.08
2022-11-29T11:45:35.463Z,69.02
2022-11-29T11:46:56.840Z,68.77
2022-11-29T11:48:19.260Z,69.02
2022-11-29T11:49:53.565Z,68.82
2022-11-29T11:51:24.528Z,69.57
2022-11-29T11:52:52.480Z,68.83
2022-11-29T11:54:15.431Z,69.20
2022-11-29T11:55:36.390Z,68.79
2022-11-29T11:56:57.645Z,69.05
2022-11-29T11:58:22.878Z,69.35
2022-11-29T11:59:48.865Z,69.74
2022-11-29T12:01:12.702Z,69.83
2022-11-29T12:02:40.387Z,69.83
2022-11-29T12:04:27.454Z,69.60
2022-11-29T12:05:52.800Z,70.47
2022-11-29T12:07:38.750Z,70.30
2022-11-29T12:09:19.475Z,70.72
2022-11-29T12:10:41.319Z,70.66
2022-11-29T12:12:20.388Z,71.04
2022-11-29T12:13:49.075Z,71.44
2022-11-29T12:15:28.738Z,71.40
2022-11-29T12:16:55.915Z,72.16
2022-11-29T12:18:44.516Z,71.79
2022-11-29T12:20:28.612Z,72.21
2022-11-29T12:21:55.895Z,72.65
2022-11-29T12:23:16.811Z,72.78
2022-11-29T12:25:00.016Z,72.94
2022-11-29T12:28:20.072Z,73.36
2022-11-29T12:29:41.534Z,72.67
2022-11-29T12:31:37.018Z,72.44
2022-11-29T12:33:17.827Z,72.02
2022-11-29T12:35:09.125Z,71.37
2022-11-29T12:36:35.866Z,72.10
2022-11-29T12:38:12.470Z,72.16
2022-11-29T12:39:42.456Z,72.01
2022-11-29T12:41:52.435Z,71.20
2022-11-29T12:43:23.891Z,71.11
2022-11-29T12:45:01.823Z,71.30
2022-11-29T12:46:26.294Z,71.03
2022-11-29T12:48:06.086Z,71.82
2022-11-29T12:49:34.551Z,71.61
2022-11-29T12:51:02.158Z,71.23
2022-11-29T12:52:58.131Z,69.23
2022-11-29T12:54:28.225Z,70.59
2022-11-29T12:56:07.752Z,70.09
2022-11-29T12:57:35.307Z,69.13
2022-11-29T12:59:23.767Z,69.62
2022-11-29T13:00:51.456Z,70.19
2022-11-29T13:02:22.255Z,69.61
2022-11-29T13:04:06.565Z,69.79
2022-11-29T13:05:30.482Z,69.83
2022-11-29T13:07:17.387Z,69.89
2022-11-29T13:09:06.082Z,69.67
2022-11-29T13:10:32.690Z,69.93
2022-11-29T13:12:43.338Z,70.04
2022-11-29T13:14:44.372Z,70.81
2022-11-29T13:18:16.956Z,70.93
2022-11-29T13:19:55.532Z,72.19
2022-11-29T13:21:24.346Z,72.24
2022-11-29T13:22:59.981Z,72.42
2022-11-29T13:24:36.067Z,73.39
2022-11-29T13:26:05.870Z,72.75
2022-11-29T13:27:32.739Z,72.81
2022-11-29T13:28:54.526Z,72.78
2022-11-29T13:30:16.322Z,73.15
2022-11-29T13:31:39.161Z,72.47
2022-11-29T13:33:17.659Z,72.22
2022-11-29T13:34:47.441Z,72.31
2022-11-29T13:36:18.964Z,72.37
2022-11-29T13:37:51.983Z,71.80
2022-11-29T13:39:34.265Z,72.01
2022-11-29T13:41:04.802Z,71.79
2022-11-29T13:42:37.235Z,72.09
2022-11-29T13:44:32.462Z,72.38
2022-11-29T13:46:28.998Z,72.31
2022-11-29T13:47:53.367Z,72.51
2022-11-29T13:49:52.918Z,72.37
2022-11-29T13:51:24.258Z,72.51
2022-11-29T13:52:47.300Z,72.94
2022-11-29T13:54:32.858Z,72.85
2022-11-29T13:56:01.470Z,73.00
2022-11-29T13:57:22.386Z,72.92
2022-11-29T13:58:43.371Z,73.09
2022-11-29T14:00:05.452Z,73.25
2022-11-29T14:01:26.878Z,73.45
2022-11-29T14:02:48.157Z,73.63
2022-11-29T14:04:27.589Z,73.10
2022-11-29T14:05:51.054Z,72.99
2022-11-29T14:07:21.175Z,74.55
2022-11-29T14:10:38.577Z,74.96
2022-11-29T14:12:36.792Z,75.32
2022-11-29T14:14:15.820Z,75.73
2022-11-29T14:15:37.363Z,76.57
2022-11-29T14:17:04.297Z,75.88
2022-11-29T14:18:37.220Z,76.30
2022-11-29T14:20:23.107Z,76.58
2022-11-29T14:21:59.067Z,77.08
2022-11-29T14:23:40.538Z,76.95
2022-11-29T14:25:49.133Z,77.12
2022-11-29T14:27:09.147Z,76.90
2022-11-29T14:28:33.049Z,77.28
2022-11-29T14:29:55.240Z,77.02
2022-11-29T14:31:49.678Z,77.34
2022-11-29T14:33:13.995Z,77.28
2022-11-29T14:34:41.793Z,77.56
2022-11-29T14:36:14.870Z,77.46
2022-11-29T14:37:45.222Z,76.80
2022-11-29T14:39:41.185Z,76.66
2022-11-29T14:41:41.215Z,76.87
2022-11-29T14:43:14.283Z,76.98
2022-11-29T14:44:44.922Z,77.12
2022-11-29T14:46:29.002Z,77.23
2022-11-29T14:47:50.846Z,77.15
2022-11-29T14:49:23.801Z,77.18
2022-11-29T14:50:44.773Z,77.49
2022-11-29T14:52:14.854Z,77.71
2022-11-29T14:53:38.048Z,77.54
2022-11-29T14:55:21.177Z,77.24
2022-11-29T14:56:45.135Z,77.82
2022-11-29T14:58:17.230Z,77.88
2022-11-29T14:59:47.281Z,77.73
2022-11-29T15:01:11.002Z,77.73
2022-11-29T15:03:11.185Z,77.65
2022-11-29T15:04:37.807Z,77.44
2022-11-29T15:06:25.124Z,77.30
2022-11-29T15:07:54.606Z,77.80
2022-11-29T15:09:19.648Z,77.67
2022-11-29T15:10:45.018Z,77.94
2022-11-29T15:12:12.649Z,78.10
2022-11-29T15:13:36.399Z,78.19
2022-11-29T15:15:15.995Z,78.00
2022-11-29T15:16:55.122Z,77.96
2022-11-29T15:18:33.442Z,78.06
2022-11-29T15:20:16.168Z,78.04
2022-11-29T15:21:46.780Z,78.02
2022-11-29T15:23:15.655Z,78.16
2022-11-29T15:25:13.997Z,78.04
2022-11-29T15:26:34.970Z,78.27
2022-11-29T15:27:58.501Z,78.29
2022-11-29T15:29:21.445Z,78.93
2022-11-29T15:30:42.700Z,78.27
2022-11-29T15:32:05.989Z,78.86
2022-11-29T15:33:28.444Z,78.92
2022-11-29T15:34:53.373Z,78.87
2022-11-29T15:36:20.546Z,79.21
2022-11-29T15:37:44.662Z,79.36
2022-11-29T15:39:05.892Z,78.85
2022-11-29T15:40:35.644Z,79.37
2022-11-29T15:42:08.386Z,79.28
2022-11-29T15:43:37.808Z,79.45
2022-11-29T15:44:59.046Z,79.49
2022-11-29T15:46:23.808Z,79.82
2022-11-29T15:47:45.440Z,79.85
2022-11-29T15:49:26.503Z,80.20
2022-11-29T15:51:00.832Z,80.33
2022-11-29T15:52:32.189Z,80.17
2022-11-29T15:54:11.640Z,80.11
2022-11-29T15:55:33.777Z,80.25
2022-11-29T15:57:06.882Z,80.13
2022-11-29T15:58:31.394Z,80.02
2022-11-29T15:59:56.909Z,80.08
2022-11-29T16:01:21.187Z,80.26
2022-11-29T16:02:50.706Z,80.04
2022-11-29T16:04:20.210Z,79.63
2022-11-29T16:05:41.113Z,79.74
2022-11-29T16:07:04.570Z,79.64
2022-11-29T16:08:29.492Z,79.58
2022-11-29T16:10:04.154Z,79.33
2022-11-29T16:11:28.887Z,79.79
2022-11-29T16:13:04.036Z,79.83
2022-11-29T16:14:28.094Z,79.31
2022-11-29T16:15:49.487Z,79.01
2022-11-29T16:17:11.337Z,78.90
2022-11-29T16:18:32.585Z,78.97
2022-11-29T16:20:21.146Z,79.41
2022-11-29T16:21:44.369Z,79.39
2022-11-29T16:23:08.220Z,79.48
2022-11-29T16:24:29.676Z,79.63
2022-11-29T16:26:11.954Z,79.48
2022-11-29T16:27:35.308Z,79.48
2022-11-29T16:28:58.007Z,79.73
2022-11-29T16:30:24.728Z,79.99
2022-11-29T16:31:45.819Z,80.00
2022-11-29T16:33:06.933Z,79.96
2022-11-29T16:34:33.027Z,80.17
2022-11-29T16:36:19.165Z,80.31
2022-11-29T16:37:44.989Z,80.55
2022-11-29T16:39:16.168Z,80.71
2022-11-29T16:40:37.155Z,80.70
2022-11-29T16:42:08.508Z,80.55
2022-11-29T16:43:59.594Z,80.66
2022-11-29T16:45:41.053Z,80.58
2022-11-29T16:47:15.898Z,80.56
2022-11-29T16:48:40.511Z,80.14
2022-11-29T16:50:02.378Z,80.43
2022-11-29T16:51:50.297Z,80.62
2022-11-29T16:53:37.481Z,80.94
2022-11-29T16:54:59.309Z,81.01
2022-11-29T16:56:23.308Z,81.19
2022-11-29T16:57:46.025Z,81.46
2022-11-29T16:59:17.223Z,81.38
2022-11-29T17:00:47.713Z,81.83
2022-11-29T17:02:12.838Z,81.84
2022-11-29T17:03:34.605Z,81.65
2022-11-29T17:04:56.656Z,81.92
2022-11-29T17:06:24.135Z,82.07
2022-11-29T17:07:45.447Z,81.65
2022-11-29T17:09:06.546Z,81.89
2022-11-29T17:10:28.973Z,81.98
2022-11-29T17:11:50.014Z,81.87
2022-11-29T17:13:11.857Z,82.25
2022-11-29T17:14:33.454Z,82.23
2022-11-29T17:15:54.789Z,82.32
2022-11-29T17:17:17.706Z,82.40
2022-11-29T17:18:41.030Z,82.34
2022-11-29T17:20:02.216Z,82.53
2022-11-29T17:21:25.987Z,82.41
2022-11-29T17:22:46.969Z,82.73
2022-11-29T17:24:12.921Z,82.57
2022-11-29T17:25:33.845Z,82.53
2022-11-29T17:26:55.564Z,82.62
2022-11-29T17:28:16.578Z,82.53
2022-11-29T17:29:37.747Z,82.68
2022-11-29T17:30:58.786Z,82.64
2022-11-29T17:32:26.289Z,82.73
2022-11-29T17:33:48.358Z,82.82
2022-11-29T17:35:09.459Z,82.71
2022-11-29T17:36:30.745Z,82.75
2022-11-29T17:37:52.469Z,82.49
2022-11-29T17:39:15.581Z,82.73
2022-11-29T17:40:38.629Z,82.72
2022-11-29T17:42:00.160Z,82.93
2022-11-29T17:43:21.293Z,82.24
2022-11-29T17:44:42.303Z,82.05
2022-11-29T17:46:09.042Z,82.23
2022-11-29T17:47:30.260Z,82.21
2022-11-29T17:48:52.308Z,82.10
2022-11-29T17:50:13.113Z,82.05
2022-11-29T17:51:54.012Z,81.76
2022-11-29T17:53:15.621Z,81.64
2022-11-29T17:54:36.934Z,81.48
2022-11-29T17:56:05.858Z,81.24
2022-11-29T17:57:27.298Z,81.39
2022-11-29T17:58:56.290Z,81.55
2022-11-29T18:00:18.246Z,81.10
2022-11-29T18:01:45.027Z,81.09
2022-11-29T18:03:05.961Z,81.17
2022-11-29T18:04:29.629Z,81.18
2022-11-29T18:05:51.524Z,81.23
2022-11-29T18:07:14.915Z,81.21
2022-11-29T18:08:41.323Z,81.41
2022-11-29T18:10:02.373Z,80.86
2022-11-29T18:11:29.999Z,81.10
2022-11-29T18:12:51.030Z,81.26
2022-11-29T18:14:13.821Z,81.72
2022-11-29T18:15:34.948Z,81.97
2022-11-29T18:16:56.532Z,81.76
2022-11-29T18:18:17.530Z,82.13
2022-11-29T18:19:38.779Z,82.23
2022-11-29T18:21:00.915Z,82.41
2022-11-29T18:22:21.987Z,82.39
2022-11-29T18:23:43.547Z,82.75
2022-11-29T18:25:30.552Z,82.07
2022-11-29T18:26:55.373Z,82.14
2022-11-29T18:28:24.240Z,82.07
2022-11-29T18:29:49.681Z,82.53
2022-11-29T18:31:30.113Z,82.58
2022-11-29T18:32:53.770Z,82.48
2022-11-29T18:34:20.796Z,82.88
2022-11-29T18:35:44.375Z,83.04
2022-11-29T18:37:15.319Z,82.69
2022-11-29T18:38:44.912Z,82.86
2022-11-29T18:40:06.999Z,83.07
2022-11-29T18:41:30.559Z,82.83
2022-11-29T18:42:51.565Z,83.15
2022-11-29T18:44:15.614Z,82.64
2022-11-29T18:45:37.837Z,83.14
2022-11-29T18:46:59.351Z,83.09
2022-11-29T18:48:20.266Z,83.19
2022-11-29T18:49:41.557Z,83.30
2022-11-29T18:51:05.202Z,83.21
2022-11-29T18:52:26.580Z,83.69
2022-11-29T18:53:47.710Z,83.26
2022-11-29T18:55:08.625Z,83.41
2022-11-29T18:56:31.647Z,83.25
2022-11-29T18:57:53.981Z,83.22
2022-11-29T18:59:17.458Z,83.26
2022-11-29T19:00:39.274Z,82.98
2022-11-29T19:02:00.089Z,83.46
2022-11-29T19:03:21.392Z,83.06
2022-11-29T19:04:42.477Z,83.31
2022-11-29T19:06:06.834Z,83.73
2022-11-29T19:07:29.399Z,83.69
2022-11-29T19:08:52.170Z,82.91
2022-11-29T19:10:13.124Z,83.46
2022-11-29T19:11:34.992Z,83.40
2022-11-29T19:12:55.920Z,83.46
2022-11-29T19:14:18.089Z,83.10
2022-11-29T19:15:39.110Z,83.16
2022-11-29T19:17:00.232Z,83.03
2022-11-29T19:18:21.707Z,83.70
2022-11-29T19:19:43.241Z,83.60
2022-11-29T19:21:06.050Z,83.28
2022-11-29T19:22:27.105Z,83.35
2022-11-29T19:23:53.501Z,83.48
2022-11-29T19:25:14.877Z,83.35
2022-11-29T19:26:36.250Z,83.48
2022-11-29T19:27:57.209Z,83.26
2022-11-29T19:29:18.585Z,83.09